Time;durP1;ratioP1;P1;durP2;ratioP2;P2;SDS_P1;SDS_P2;PMS_P1;PMS_P2;Temp;Humidity;BMP_temperature;BMP_pressure;BME280_temperature;BME280_humidity;BME280_pressure;Samples;Min_cycle;Max_cycle;Signal;HPM_P1;HPM_P2
2022/07/08 00:01:58;;;;;;;;;3.25;2.75;;;;;19.17;50.67;102492.97;5072780;28;45526;-82
2022/07/08 00:04:24;;;;;;;;;4.00;3.25;;;;;19.11;50.74;102492.78;5073300;28;45335;-82
2022/07/08 00:06:49;;;;;;;;;3.50;3.00;;;;;18.96;50.84;102476.38;5072446;28;45417;-83
2022/07/08 00:09:15;;;;;;;;;3.25;3.00;;;;;19.04;50.96;102496.16;5074966;28;45504;-82
2022/07/08 00:11:41;;;;;;;;;2.00;2.00;;;;;19.03;50.70;102495.25;5076314;27;45314;-82
2022/07/08 00:14:08;;;;;;;;;3.00;3.00;;;;;19.06;50.66;102514.00;5076360;28;45300;-81
2022/07/08 00:16:33;;;;;;;;;2.25;2.00;;;;;18.91;50.74;102492.22;5057468;28;45494;-83
2022/07/08 00:19:00;;;;;;;;;4.00;4.00;;;;;18.99;50.99;102514.66;5076017;27;45407;-81
2022/07/08 00:21:25;;;;;;;;;4.00;2.75;;;;;18.80;50.99;102496.34;5075960;28;45368;-82
2022/07/08 00:23:51;;;;;;;;;3.00;3.00;;;;;18.81;51.20;102498.16;5076279;27;45362;-81
2022/07/08 00:26:16;;;;;;;;;2.25;2.25;;;;;18.93;51.47;102524.25;5076339;28;45611;-83
2022/07/08 00:28:41;;;;;;;;;3.00;2.75;;;;;18.87;51.35;102503.69;5075865;28;45574;-85
2022/07/08 00:31:07;;;;;;;;;3.50;3.50;;;;;18.77;51.59;102496.28;5057236;28;45491;-84
2022/07/08 00:33:32;;;;;;;;;4.00;3.25;;;;;18.93;51.15;102525.16;5076618;28;45704;-83
2022/07/08 00:35:57;;;;;;;;;2.25;1.50;;;;;18.71;51.56;102502.31;5075840;28;45458;-81
2022/07/08 00:38:23;;;;;;;;;2.50;2.00;;;;;18.80;51.53;102521.22;5074324;27;47338;-83
2022/07/08 00:40:48;;;;;;;;;3.25;3.00;;;;;18.74;51.44;102512.16;5076189;28;45670;-82
2022/07/08 00:43:40;;;;;;;;;1.00;1.00;;;;;18.83;51.61;102530.19;5075878;27;45256;-81
2022/07/08 00:46:07;;;;;;;;;2.75;2.00;;;;;18.79;51.34;102511.44;5075549;28;45258;-82
2022/07/08 00:48:33;;;;;;;;;3.00;2.50;;;;;18.79;51.44;102510.53;5057590;28;46150;-83
2022/07/08 00:51:02;;;;;;;;;3.00;3.00;;;;;18.66;51.42;102505.66;5057491;28;45923;-82
2022/07/08 00:53:30;;;;;;;;;2.75;2.50;;;;;18.62;51.83;102504.69;5075709;28;45507;-82
2022/07/08 00:55:56;;;;;;;;;2.25;2.25;;;;;18.52;51.73;102490.19;5075447;28;45456;-82
2022/07/08 00:58:22;;;;;;;;;2.75;2.75;;;;;18.54;52.25;102499.13;5075276;28;45423;-82
2022/07/08 01:00:48;;;;;;;;;4.00;3.00;;;;;18.63;51.74;102517.16;5075552;28;45466;-83
2022/07/08 01:03:14;;;;;;;;;3.75;3.25;;;;;18.59;51.94;102507.25;5075693;28;45268;-82
2022/07/08 01:05:39;;;;;;;;;4.00;3.00;;;;;18.44;52.21;102485.50;5075735;28;45514;-82
2022/07/08 01:08:05;;;;;;;;;4.00;4.00;;;;;18.54;52.01;102514.19;5075475;28;46920;-82
2022/07/08 01:10:31;;;;;;;;;2.50;2.50;;;;;18.66;52.07;102553.59;5075182;28;45478;-82
2022/07/08 01:12:57;;;;;;;;;2.00;2.00;;;;;18.56;51.94;102531.13;5075349;27;45285;-82
2022/07/08 01:15:23;;;;;;;;;2.75;2.50;;;;;18.44;51.53;102513.00;5074793;28;45597;-81
2022/07/08 01:17:48;;;;;;;;;3.00;3.00;;;;;18.39;51.90;102498.66;5073877;28;47383;-81
2022/07/08 01:20:15;;;;;;;;;4.00;3.00;;;;;18.53;51.56;102539.94;5074727;28;45406;-82
2022/07/08 01:22:41;;;;;;;;;1.75;1.75;;;;;18.31;51.51;102505.50;5056983;28;45485;-82
2022/07/08 01:25:07;;;;;;;;;2.75;2.75;;;;;18.28;51.39;102518.72;5073942;27;45416;-82
2022/07/08 01:27:33;;;;;;;;;2.00;1.00;;;;;18.47;51.63;102571.69;5074992;28;45532;-82
2022/07/08 01:29:58;;;;;;;;;3.00;2.50;;;;;18.45;51.44;102573.41;5074977;28;45919;-81
2022/07/08 01:32:35;;;;;;;;;2.75;2.75;;;;;18.29;51.02;102547.16;5074788;28;45331;-81
2022/07/08 01:35:00;;;;;;;;;2.50;2.50;;;;;18.19;51.39;102539.72;5074822;28;45414;-83
2022/07/08 01:37:26;;;;;;;;;2.00;2.00;;;;;18.28;51.31;102561.31;5074854;28;45503;-81
2022/07/08 01:39:52;;;;;;;;;1.75;1.75;;;;;18.05;51.33;102523.31;5056674;27;45570;-82
2022/07/08 01:42:17;;;;;;;;;2.00;1.50;;;;;18.28;51.37;102567.53;5075046;28;45420;-83
2022/07/08 01:44:42;;;;;;;;;4.25;4.25;;;;;18.18;51.66;102553.91;5056727;28;45448;-82
2022/07/08 01:47:08;;;;;;;;;5.00;5.00;;;;;18.19;51.85;102561.03;5074437;28;45593;-84
2022/07/08 01:49:33;;;;;;;;;9.00;7.00;;;;;17.98;52.08;102524.88;5056299;28;54536;-84
2022/07/08 01:51:59;;;;;;;;;5.00;4.50;;;;;18.01;52.02;102529.38;5074804;28;46117;-81
2022/07/08 01:54:24;;;;;;;;;4.00;3.50;;;;;18.07;52.10;102552.63;5074481;28;45468;-83
2022/07/08 01:56:50;;;;;;;;;2.25;2.25;;;;;18.10;52.01;102574.91;5056435;28;48257;-84
2022/07/08 01:59:16;;;;;;;;;4.00;3.75;;;;;17.98;52.76;102548.81;5056371;28;45479;-83
2022/07/08 02:01:41;;;;;;;;;2.50;2.00;;;;;17.94;52.70;102546.91;5056186;28;45332;-82
2022/07/08 02:04:07;;;;;;;;;4.75;3.50;;;;;17.83;52.89;102527.00;5074703;27;45295;-83
2022/07/08 02:06:32;;;;;;;;;3.00;2.75;;;;;17.70;52.93;102514.13;5074266;28;46502;-84
2022/07/08 02:08:58;;;;;;;;;2.75;1.75;;;;;17.67;53.05;102512.25;5074660;27;45299;-82
2022/07/08 02:14:07;;;;;;;;;3.00;3.00;;;;;17.79;53.21;102541.97;5074543;28;45265;-82
2022/07/08 02:16:32;;;;;;;;;2.25;1.50;;;;;17.85;53.45;102551.91;5074217;28;46123;-82
2022/07/08 02:18:58;;;;;;;;;2.00;2.00;;;;;17.73;53.07;102540.84;5074165;28;45382;-81
2022/07/08 02:21:23;;;;;;;;;2.00;1.50;;;;;17.72;53.33;102550.56;5074329;28;45433;-85
2022/07/08 02:23:49;;;;;;;;;2.00;2.00;;;;;17.75;53.34;102555.13;5072953;28;45517;-82
2022/07/08 02:26:14;;;;;;;;;1.50;1.50;;;;;17.75;53.43;102565.75;5073970;27;45394;-82
2022/07/08 02:28:40;;;;;;;;;3.00;2.75;;;;;17.69;53.68;102552.22;5073936;27;45413;-83
2022/07/08 02:31:05;;;;;;;;;2.50;2.00;;;;;17.62;53.61;102537.78;5072839;28;45612;-81
2022/07/08 02:33:30;;;;;;;;;3.75;2.75;;;;;17.75;53.52;102571.09;5074754;28;45452;-83
2022/07/08 02:35:56;;;;;;;;;3.50;2.75;;;;;17.63;53.44;102541.34;5073659;28;47447;-82
2022/07/08 02:38:22;;;;;;;;;1.50;1.50;;;;;17.45;54.15;102510.63;5073992;28;45487;-82
2022/07/08 02:40:47;;;;;;;;;3.25;2.75;;;;;17.41;54.14;102505.16;5074377;28;45574;-84
2022/07/08 02:43:13;;;;;;;;;3.75;3.25;;;;;17.64;53.92;102554.72;5073907;28;45414;-81
2022/07/08 02:45:38;;;;;;;;;2.25;1.50;;;;;17.49;54.08;102536.47;5073317;27;45528;-83
2022/07/08 02:48:07;;;;;;;;;3.75;3.50;;;;;17.46;54.04;102524.84;5072378;28;45636;-83
2022/07/08 02:50:32;;;;;;;;;3.00;2.00;;;;;17.56;53.96;102548.22;5073753;27;45508;-85
2022/07/08 02:52:57;;;;;;;;;3.50;3.00;;;;;17.44;54.28;102526.53;5072535;28;45548;-81
2022/07/08 02:55:23;;;;;;;;;2.33;2.33;;;;;17.53;54.28;102545.44;5073505;27;47731;-83
2022/07/08 02:57:48;;;;;;;;;3.50;2.25;;;;;17.46;54.20;102541.69;5073650;27;45299;-82
2022/07/08 03:00:14;;;;;;;;;1.50;1.50;;;;;17.46;54.15;102541.69;5054974;28;45560;-81
2022/07/08 03:02:39;;;;;;;;;4.25;2.00;;;;;17.39;54.15;102531.69;5055399;28;45602;-82
2022/07/08 03:05:05;;;;;;;;;2.33;2.33;;;;;17.47;54.16;102546.13;5055108;28;48803;-82
2022/07/08 03:07:30;;;;;;;;;1.50;1.50;;;;;17.32;54.65;102528.75;5072204;28;45655;-82
2022/07/08 03:09:55;;;;;;;;;3.00;2.00;;;;;17.37;54.71;102543.09;5073919;28;45518;-85
2022/07/08 03:12:21;;;;;;;;;3.00;2.00;;;;;17.39;54.55;102560.00;5073744;28;45482;-82
2022/07/08 03:14:46;;;;;;;;;4.75;4.00;;;;;17.40;54.99;102565.41;5073611;28;45367;-82
2022/07/08 03:17:11;;;;;;;;;3.75;3.00;;;;;17.17;54.56;102529.13;5054958;28;49297;-85
2022/07/08 03:19:37;;;;;;;;;4.25;4.00;;;;;17.16;55.07;102533.53;5072087;28;45337;-85
2022/07/08 03:22:03;;;;;;;;;3.75;3.00;;;;;17.39;55.03;102584.88;5055388;28;45456;-83
2022/07/08 03:24:29;;;;;;;;;3.75;3.75;;;;;17.24;55.11;102553.31;5073365;28;45417;-84
2022/07/08 03:26:54;;;;;;;;;3.00;3.00;;;;;17.27;54.82;102556.06;5071908;27;45446;-82
2022/07/08 03:29:19;;;;;;;;;3.00;3.00;;;;;17.21;55.26;102544.31;5073712;28;45532;-83
2022/07/08 03:31:45;;;;;;;;;2.50;2.00;;;;;17.29;54.67;102566.78;5073111;28;45581;-84
2022/07/08 03:34:10;;;;;;;;;4.25;4.25;;;;;17.16;54.77;102554.78;5055067;27;47302;-84
2022/07/08 03:36:35;;;;;;;;;3.00;2.75;;;;;17.15;55.37;102570.69;5055424;28;45644;-82
2022/07/08 03:39:01;;;;;;;;;2.33;2.00;;;;;17.01;54.95;102551.56;5073712;28;45314;-82
2022/07/08 03:41:26;;;;;;;;;3.00;3.00;;;;;17.07;55.58;102557.09;5072990;28;45462;-82
2022/07/08 03:43:52;;;;;;;;;3.25;2.50;;;;;17.12;55.56;102570.56;5076159;27;46282;-81
2022/07/08 03:46:18;;;;;;;;;4.00;3.00;;;;;17.10;55.60;102577.56;5076293;28;45471;-83
2022/07/08 03:48:44;;;;;;;;;5.00;3.50;;;;;17.22;55.52;102594.84;5076651;28;45486;-82
2022/07/08 03:51:10;;;;;;;;;2.50;2.50;;;;;17.01;55.34;102563.09;5076715;27;45451;-83
2022/07/08 03:53:35;;;;;;;;;3.75;3.00;;;;;17.01;55.46;102563.09;5076413;28;46150;-81
2022/07/08 03:56:01;;;;;;;;;2.25;2.25;;;;;16.97;55.51;102560.25;5077026;28;45458;-81
2022/07/08 03:58:26;;;;;;;;;3.00;3.00;;;;;16.87;55.10;102547.47;5076759;27;45359;-81
2022/07/08 04:00:51;;;;;;;;;6.25;4.00;;;;;17.08;55.40;102588.13;5075806;28;45299;-81
2022/07/08 04:03:17;;;;;;;;;3.75;3.25;;;;;16.88;55.56;102558.16;5074781;27;47181;-82
2022/07/08 04:05:42;;;;;;;;;3.25;3.25;;;;;16.94;55.10;102562.78;5076682;28;45410;-85
2022/07/08 04:08:08;;;;;;;;;4.75;4.00;;;;;17.11;55.72;102592.66;5076303;28;45252;-81
2022/07/08 04:10:33;;;;;;;;;4.50;3.00;;;;;17.10;55.95;102605.03;5075067;28;45315;-84
2022/07/08 04:12:59;;;;;;;;;3.00;3.00;;;;;16.94;55.49;102582.28;5076217;28;46406;-83
2022/07/08 04:15:24;;;;;;;;;3.75;3.75;;;;;16.80;55.92;102559.63;5075802;28;45423;-85
2022/07/08 04:17:49;;;;;;;;;3.75;3.75;;;;;16.93;55.85;102587.53;5076544;27;45545;-81
2022/07/08 04:20:15;;;;;;;;;6.75;4.25;;;;;16.98;55.93;102597.50;5076213;27;45391;-82
2022/07/08 04:22:40;;;;;;;;;5.00;4.00;;;;;16.66;55.59;102536.94;5075973;28;45348;-83
2022/07/08 04:25:07;;;;;;;;;2.00;2.00;;;;;16.85;55.90;102575.75;5075898;28;46449;-82
2022/07/08 04:27:33;;;;;;;;;4.75;4.00;;;;;17.03;56.12;102611.84;5076193;28;45489;-83
2022/07/08 04:29:59;;;;;;;;;3.25;3.00;;;;;16.94;55.94;102605.28;5076145;28;45344;-82
2022/07/08 04:32:24;;;;;;;;;4.67;4.00;;;;;16.75;56.19;102567.44;5057047;27;48751;-82
2022/07/08 04:34:51;;;;;;;;;4.00;3.50;;;;;17.06;56.00;102616.41;5075814;27;45411;-82
2022/07/08 04:37:17;;;;;;;;;3.00;2.75;;;;;16.88;56.32;102582.06;5075922;28;45275;-84
2022/07/08 04:39:43;;;;;;;;;3.00;3.00;;;;;16.98;55.96;102600.16;5075801;28;45458;-82
2022/07/08 04:42:08;;;;;;;;;3.75;3.50;;;;;17.00;55.87;102600.22;5075426;28;45552;-82
2022/07/08 04:44:33;;;;;;;;;4.50;4.00;;;;;16.96;56.26;102593.88;5076318;28;45432;-84
2022/07/08 04:46:59;;;;;;;;;4.00;3.00;;;;;16.99;56.36;102591.38;5075707;27;45315;-82
2022/07/08 04:49:24;;;;;;;;;5.50;4.00;;;;;16.96;56.45;102591.22;5057516;28;45465;-81
2022/07/08 04:51:50;;;;;;;;;4.00;4.00;;;;;16.94;55.89;102589.34;5075589;28;46146;-82
2022/07/08 04:54:16;;;;;;;;;3.75;3.75;;;;;17.06;56.21;102610.19;5074884;27;45585;-82
2022/07/08 04:56:41;;;;;;;;;6.00;5.75;;;;;17.13;55.95;102625.50;5075714;28;45371;-84
2022/07/08 04:59:08;;;;;;;;;5.75;4.00;;;;;17.07;56.15;102617.31;5074126;27;45426;-82
2022/07/08 05:01:33;;;;;;;;;4.00;4.00;;;;;17.10;56.20;102625.41;5075052;27;46453;-84
2022/07/08 05:03:58;;;;;;;;;4.25;4.00;;;;;17.13;56.29;102625.50;5075773;27;45630;-83
2022/07/08 05:06:24;;;;;;;;;3.67;3.67;;;;;17.03;56.06;102600.31;5075563;28;45458;-81
2022/07/08 05:08:49;;;;;;;;;5.00;4.00;;;;;17.20;55.86;102624.91;5075525;28;45549;-82
2022/07/08 05:11:14;;;;;;;;;5.75;4.75;;;;;17.13;55.70;102609.56;5075335;27;46291;-83
2022/07/08 05:13:40;;;;;;;;;4.00;4.00;;;;;17.05;56.03;102597.75;5075248;27;45434;-81
2022/07/08 05:16:05;;;;;;;;;3.00;3.00;;;;;17.09;55.56;102620.91;5074961;28;45439;-82
2022/07/08 05:18:30;;;;;;;;;3.75;3.00;;;;;17.23;55.92;102648.91;5075321;27;45423;-81
2022/07/08 05:20:56;;;;;;;;;4.00;4.00;;;;;17.13;55.78;102614.88;5075116;28;47433;-81
2022/07/08 05:23:21;;;;;;;;;5.33;5.33;;;;;17.20;55.65;102619.59;5056798;28;45429;-84
2022/07/08 05:25:46;;;;;;;;;4.00;4.00;;;;;17.08;55.86;102596.09;5075633;28;45440;-83
2022/07/08 05:28:12;;;;;;;;;3.75;3.25;;;;;17.25;55.85;102624.22;5057027;28;45439;-82
2022/07/08 05:30:37;;;;;;;;;5.25;4.00;;;;;17.34;55.91;102630.69;5056254;27;47187;-82
2022/07/08 05:33:02;;;;;;;;;6.00;5.75;;;;;17.29;56.13;102625.25;5075502;27;45455;-85
2022/07/08 05:35:28;;;;;;;;;4.25;4.00;;;;;17.36;55.99;102629.91;5074969;27;45371;-84
2022/07/08 05:37:54;;;;;;;;;7.25;5.75;;;;;17.42;55.52;102634.56;5074804;28;45286;-83
2022/07/08 05:40:19;;;;;;;;;4.00;3.75;;;;;17.38;55.14;102622.91;5074679;28;45415;-82
2022/07/08 05:42:45;;;;;;;;;4.00;4.00;;;;;17.41;55.60;102623.03;5054789;28;45737;-81
2022/07/08 05:45:10;;;;;;;;;2.50;2.50;;;;;17.49;55.34;102632.19;5034308;28;45489;-83
2022/07/08 05:47:36;;;;;;;;;3.25;3.25;;;;;17.47;55.84;102620.56;5034660;28;45325;-86
2022/07/08 05:50:02;;;;;;;;;3.00;3.00;;;;;17.63;55.27;102639.75;5034348;28;46425;-82
2022/07/08 05:52:27;;;;;;;;;7.25;5.00;;;;;17.50;54.97;102619.81;5034242;28;45423;-81
2022/07/08 05:54:53;;;;;;;;;4.00;3.33;;;;;17.38;55.56;102588.34;5033889;28;45516;-82
2022/07/08 05:57:18;;;;;;;;;2.75;2.75;;;;;17.48;55.37;102608.19;5034918;28;45535;-85
2022/07/08 05:59:44;;;;;;;;;4.00;3.75;;;;;17.62;54.96;102620.22;5034270;28;46449;-82
2022/07/08 06:02:10;;;;;;;;;2.50;2.50;;;;;17.64;55.27;102628.28;5033813;28;45438;-82
2022/07/08 06:04:36;;;;;;;;;3.50;3.50;;;;;17.59;55.24;102603.28;5049984;28;45502;-82
2022/07/08 06:07:02;;;;;;;;;6.25;4.25;;;;;17.78;55.05;102633.28;5033032;28;45601;-85
2022/07/08 06:09:28;;;;;;;;;4.50;3.50;;;;;17.67;55.06;102621.28;5033996;28;46596;-82
2022/07/08 06:11:53;;;;;;;;;4.75;4.75;;;;;17.74;55.26;102619.81;5032858;28;45825;-82
2022/07/08 06:14:19;;;;;;;;;8.50;7.75;;;;;17.71;54.78;102614.34;5033822;28;45363;-82
2022/07/08 06:16:47;;;;;;;;;4.50;4.50;;;;;17.87;54.84;102634.44;5032440;28;45383;-84
2022/07/08 06:19:13;;;;;;;;;4.00;3.25;;;;;17.90;54.73;102635.44;5032635;28;47286;-84
2022/07/08 06:21:38;;;;;;;;;5.25;5.25;;;;;17.99;54.72;102649.06;5034046;28;45318;-83
2022/07/08 06:24:04;;;;;;;;;4.25;3.75;;;;;17.84;54.93;102613.97;5034373;28;45345;-85
2022/07/08 06:26:29;;;;;;;;;3.75;3.50;;;;;17.96;54.51;102643.63;5034009;28;45547;-83
2022/07/08 06:28:54;;;;;;;;;4.75;4.75;;;;;17.98;54.48;102639.28;5032134;28;49710;-84
2022/07/08 06:31:20;;;;;;;;;3.50;3.50;;;;;18.01;55.11;102627.81;5033343;28;45376;-82
2022/07/08 06:33:45;;;;;;;;;3.00;2.50;;;;;18.13;54.72;102653.94;5033785;28;45478;-84
2022/07/08 06:36:11;;;;;;;;;4.50;4.50;;;;;18.10;54.48;102633.47;5034014;28;45526;-82
2022/07/08 06:38:36;;;;;;;;;6.00;5.25;;;;;18.18;54.20;102649.72;5033833;28;45358;-82
2022/07/08 06:41:02;;;;;;;;;3.00;3.00;;;;;18.19;54.33;102638.19;5034815;28;45248;-83
2022/07/08 06:43:27;;;;;;;;;6.25;5.00;;;;;18.15;54.36;102623.88;5074010;28;45451;-84
2022/07/08 06:45:53;;;;;;;;;6.50;5.75;;;;;18.33;54.01;102660.88;5073675;28;45759;-85
2022/07/08 06:48:19;;;;;;;;;4.25;4.25;;;;;18.16;54.01;102633.66;5073848;28;45339;-82
2022/07/08 06:50:44;;;;;;;;;6.00;5.25;;;;;18.27;53.77;102647.31;5073882;28;45409;-83
2022/07/08 06:53:10;;;;;;;;;6.00;5.25;;;;;18.21;54.42;102633.81;5073943;28;45446;-82
2022/07/08 06:55:35;;;;;;;;;5.00;4.25;;;;;18.12;54.32;102615.78;5073744;28;45454;-82
2022/07/08 06:58:00;;;;;;;;;6.50;4.75;;;;;18.35;53.97;102651.16;5073933;28;45369;-84
2022/07/08 07:00:26;;;;;;;;;8.50;7.75;;;;;18.29;53.50;102621.69;5073428;28;45432;-81
2022/07/08 07:02:51;;;;;;;;;6.50;5.50;;;;;18.36;53.48;102630.75;5072647;28;45447;-81
2022/07/08 07:05:19;;;;;;;;;9.25;6.75;;;;;18.43;53.71;102644.34;5074077;28;45488;-84
2022/07/08 07:07:45;;;;;;;;;5.00;5.00;;;;;18.27;54.21;102610.06;5073701;28;46481;-84
2022/07/08 07:10:10;;;;;;;;;4.75;4.75;;;;;18.43;53.89;102635.44;5073578;28;45482;-81
2022/07/08 07:12:35;;;;;;;;;9.25;6.00;;;;;18.59;53.79;102655.50;5073695;28;45363;-84
2022/07/08 07:15:00;;;;;;;;;6.67;6.67;;;;;18.46;53.73;102632.88;5055130;27;45467;-83
2022/07/08 07:17:26;;;;;;;;;7.25;7.00;;;;;18.48;54.12;102621.44;5074383;28;45920;-82
2022/07/08 07:19:51;;;;;;;;;8.50;7.00;;;;;18.63;53.65;102639.66;5077351;28;45368;-82
2022/07/08 07:22:17;;;;;;;;;5.75;5.00;;;;;18.65;53.19;102639.69;5077514;28;45223;-85
2022/07/08 07:24:42;;;;;;;;;6.25;6.25;;;;;18.66;52.66;102652.16;5077154;28;45568;-83
2022/07/08 07:27:08;;;;;;;;;6.00;5.00;;;;;18.58;52.94;102633.28;5076963;28;45393;-82
2022/07/08 07:29:33;;;;;;;;;7.25;6.25;;;;;18.66;53.42;102644.16;5075699;28;46171;-85
2022/07/08 07:31:59;;;;;;;;;5.75;4.75;;;;;18.77;53.59;102651.69;5076906;28;45415;-83
2022/07/08 07:34:24;;;;;;;;;4.75;4.75;;;;;18.73;53.76;102643.56;5076892;28;45607;-85
2022/07/08 07:36:50;;;;;;;;;7.50;5.75;;;;;18.75;53.05;102639.16;5077219;27;46193;-83
2022/07/08 07:39:15;;;;;;;;;6.00;5.25;;;;;18.85;52.44;102651.91;5058628;28;45689;-83
2022/07/08 07:41:40;;;;;;;;;6.25;6.25;;;;;18.75;52.51;102641.81;5076773;27;45372;-82
2022/07/08 07:44:06;;;;;;;;;6.75;5.00;;;;;18.85;52.75;102659.00;5077044;28;45481;-83
2022/07/08 07:46:32;;;;;;;;;7.25;7.25;;;;;18.81;52.56;102644.69;5076332;28;45394;-82
2022/07/08 07:48:58;;;;;;;;;5.25;5.25;;;;;18.72;52.55;102628.44;5077061;28;45330;-82
2022/07/08 07:51:23;;;;;;;;;5.25;5.25;;;;;18.80;52.55;102640.22;5076778;28;45597;-84
2022/07/08 07:53:49;;;;;;;;;7.25;6.50;;;;;18.99;52.24;102677.22;5077487;27;45490;-82
2022/07/08 07:56:14;;;;;;;;;7.00;6.00;;;;;18.89;52.58;102651.16;5076253;28;46463;-82
2022/07/08 07:58:40;;;;;;;;;9.50;8.50;;;;;18.91;52.61;102654.75;5075127;28;45351;-84
2022/07/08 08:01:06;;;;;;;;;6.50;5.50;;;;;18.87;52.52;102642.22;5076342;28;45578;-85
2022/07/08 08:03:31;;;;;;;;;7.25;5.25;;;;;18.96;52.12;102631.81;5058319;28;45399;-85
2022/07/08 08:05:57;;;;;;;;;4.50;4.50;;;;;19.01;52.19;102638.22;5076164;27;45433;-83
2022/07/08 08:08:24;;;;;;;;;5.00;4.25;;;;;19.01;52.07;102630.22;5076275;28;45505;-82
2022/07/08 08:10:50;;;;;;;;;6.00;5.00;;;;;19.02;51.82;102631.13;5058298;28;45400;-85
2022/07/08 08:13:15;;;;;;;;;6.50;6.00;;;;;19.14;52.09;102647.47;5076444;28;45296;-82
2022/07/08 08:15:41;;;;;;;;;6.00;6.00;;;;;19.04;52.13;102624.06;5075788;28;45421;-82
2022/07/08 08:18:06;;;;;;;;;7.50;7.00;;;;;19.09;51.91;102630.44;5058011;28;45399;-83
2022/07/08 08:20:31;;;;;;;;;7.50;6.50;;;;;19.08;51.80;102631.31;5076584;28;45506;-82
2022/07/08 08:22:58;;;;;;;;;7.00;6.00;;;;;19.04;52.04;102624.97;5076300;27;45711;-83
2022/07/08 08:25:24;;;;;;;;;7.00;6.00;;;;;19.23;51.38;102647.75;5076050;28;45559;-82
2022/07/08 08:27:50;;;;;;;;;7.00;6.00;;;;;19.30;51.86;102660.38;5076519;28;45456;-83
2022/07/08 08:30:17;;;;;;;;;5.50;5.00;;;;;19.15;51.75;102621.72;5075025;27;45360;-85
2022/07/08 08:32:42;;;;;;;;;6.75;5.50;;;;;19.30;51.42;102646.16;5076167;28;45331;-84
2022/07/08 08:35:09;;;;;;;;;6.75;5.00;;;;;19.26;51.42;102620.25;5074572;28;46884;-82
2022/07/08 08:37:34;;;;;;;;;5.75;5.75;;;;;19.23;51.17;102612.19;5076114;28;45768;-81
2022/07/08 08:40:03;;;;;;;;;6.00;5.25;;;;;19.41;51.15;102633.13;5075967;27;45427;-82
2022/07/08 08:42:30;;;;;;;;;7.00;5.50;;;;;19.49;51.01;102634.25;5075575;28;45504;-83
2022/07/08 08:44:57;;;;;;;;;5.75;5.75;;;;;19.52;51.23;102634.34;5074379;27;48058;-83
2022/07/08 08:47:28;;;;;;;;;8.00;7.00;;;;;19.46;51.10;102610.19;5075451;27;45397;-83
2022/07/08 08:49:55;;;;;;;;;8.00;6.75;;;;;19.59;51.20;102620.31;5076224;28;45451;-82
2022/07/08 08:52:23;;;;;;;;;9.00;9.00;;;;;19.53;51.11;102605.06;5075842;28;45516;-81
2022/07/08 08:54:49;;;;;;;;;6.75;6.25;;;;;19.65;50.71;102617.84;5075606;28;45467;-84
2022/07/08 08:57:17;;;;;;;;;6.75;6.50;;;;;19.66;50.80;102614.34;5075785;28;45950;-82
2022/07/08 08:59:44;;;;;;;;;7.50;7.00;;;;;19.55;51.21;102594.41;5075526;28;45406;-83
2022/07/08 09:02:11;;;;;;;;;9.75;8.00;;;;;19.62;50.59;102592.88;5074860;28;45334;-82
2022/07/08 09:04:37;;;;;;;;;7.00;6.25;;;;;19.82;50.32;102619.22;5073979;28;46125;-85
2022/07/08 09:07:02;;;;;;;;;9.75;8.00;;;;;19.83;50.28;102614.78;5075248;28;45332;-82
2022/07/08 09:09:28;;;;;;;;;8.00;7.50;;;;;19.78;50.13;102595.06;5075485;28;45313;-81
2022/07/08 09:11:53;;;;;;;;;6.75;6.75;;;;;19.92;49.55;102623.03;5075429;28;45286;-81
2022/07/08 09:14:20;;;;;;;;;6.25;6.00;;;;;19.96;49.61;102624.91;5057240;28;48122;-82
2022/07/08 09:17:09;;;;;;;;;8.25;8.00;;;;;19.97;49.32;102621.38;5056518;28;45855;-81
2022/07/08 09:19:40;;;;;;;;;5.50;5.00;;;;;19.95;49.18;102609.78;5056948;28;45429;-82
2022/07/08 09:22:07;;;;;;;;;6.00;5.00;;;;;20.01;49.64;102604.59;5075227;28;45577;-81
2022/07/08 09:24:33;;;;;;;;;8.50;6.50;;;;;20.09;49.35;102611.00;5075126;28;46193;-82
2022/07/08 09:27:04;;;;;;;;;4.75;4.00;;;;;19.96;49.23;102581.31;5075201;27;45906;-82
2022/07/08 09:29:29;;;;;;;;;6.00;6.00;;;;;19.98;48.83;102584.91;5075420;27;45567;-81
2022/07/08 09:32:09;;;;;;;;;6.25;5.25;;;;;20.18;48.87;102604.09;5075116;28;45644;-82
2022/07/08 09:34:35;;;;;;;;;7.50;7.00;;;;;20.06;48.67;102580.69;5056607;28;46487;-82
2022/07/08 09:37:10;;;;;;;;;8.00;6.00;;;;;20.05;48.53;102563.75;5075040;27;45888;-82
2022/07/08 09:39:35;;;;;;;;;5.75;4.75;;;;;20.08;48.46;102566.50;5074890;28;45315;-82
2022/07/08 09:42:01;;;;;;;;;5.75;5.75;;;;;20.35;48.12;102600.09;5046165;28;45291;-81
2022/07/08 09:44:26;;;;;;;;;6.00;6.00;;;;;20.25;47.49;102580.28;5034257;28;45442;-82
2022/07/08 09:46:52;;;;;;;;;6.00;6.00;;;;;20.26;47.95;102570.47;5034008;28;45481;-81
2022/07/08 09:49:33;;;;;;;;;6.50;6.50;;;;;20.43;48.07;102592.25;5049979;28;45288;-81
2022/07/08 09:51:59;;;;;;;;;5.75;5.50;;;;;20.49;47.38;102585.31;5034621;28;45392;-82
2022/07/08 09:54:27;;;;;;;;;6.00;5.75;;;;;20.44;47.37;102568.22;5034292;28;46660;-81
2022/07/08 09:57:01;;;;;;;;;7.00;7.00;;;;;20.59;47.43;102586.41;5034758;28;45680;-83
2022/07/08 09:59:27;;;;;;;;;0.00;0.00;;;;;20.57;47.33;102573.03;5034478;28;45288;-81
2022/07/08 10:01:53;;;;;;;;;7.50;6.25;;;;;20.74;47.54;102585.84;5033976;28;45312;-82
2022/07/08 10:04:19;;;;;;;;;7.50;6.50;;;;;20.72;46.96;102585.81;5034147;28;45478;-82
2022/07/08 10:06:45;;;;;;;;;4.75;4.75;;;;;20.87;46.52;102595.94;5032979;28;45479;-85
2022/07/08 10:09:10;;;;;;;;;10.00;8.75;;;;;20.91;46.10;102586.22;5034084;28;45577;-82
2022/07/08 10:11:38;;;;;;;;;6.00;5.00;;;;;20.97;45.84;102581.91;5049478;28;45396;-84
2022/07/08 10:14:05;;;;;;;;;6.25;5.75;;;;;21.00;45.87;102578.41;5034072;28;45531;-82
2022/07/08 10:16:33;;;;;;;;;5.50;5.25;;;;;21.08;46.34;102584.81;5032495;28;45842;-85
2022/07/08 10:19:01;;;;;;;;;7.50;7.50;;;;;21.15;45.60;102575.16;5049064;28;45352;-84
2022/07/08 10:21:30;;;;;;;;;6.00;4.75;;;;;21.22;45.36;102569.94;5034087;28;45371;-81
2022/07/08 10:23:55;;;;;;;;;6.25;5.00;;;;;21.37;45.26;102585.44;5033950;28;46664;-83
2022/07/08 10:26:34;;;;;;;;;5.50;5.50;;;;;21.40;44.57;102574.78;5032673;28;45794;-83
2022/07/08 10:29:03;;;;;;;;;5.75;5.00;;;;;21.42;44.42;102569.47;5032915;28;45477;-84
2022/07/08 10:31:29;;;;;;;;;6.50;5.00;;;;;21.42;44.49;102566.78;5049395;28;45839;-83
2022/07/08 10:34:01;;;;;;;;;5.00;5.00;;;;;21.62;44.06;102578.75;5033584;28;46356;-82
2022/07/08 10:36:27;;;;;;;;;7.25;7.25;;;;;21.65;43.54;102576.16;5033723;28;46082;-83
2022/07/08 10:38:54;;;;;;;;;6.00;5.00;;;;;21.63;43.95;102557.41;5032623;28;45493;-83
2022/07/08 10:41:23;;;;;;;;;5.25;5.25;;;;;21.67;43.54;102546.72;5035820;28;45307;-85
2022/07/08 10:43:51;;;;;;;;;5.50;5.50;;;;;21.92;43.58;102593.56;5074129;28;45484;-83
2022/07/08 10:46:17;;;;;;;;;5.50;5.00;;;;;21.98;43.33;102585.66;5074118;28;45475;-82
2022/07/08 10:48:47;;;;;;;;;7.00;5.75;;;;;22.02;43.18;102590.16;5073923;28;45521;-84
2022/07/08 10:51:18;;;;;;;;;6.00;5.00;;;;;22.06;43.03;102587.56;5074088;28;45359;-84
2022/07/08 10:53:52;;;;;;;;;6.50;4.75;;;;;22.13;42.70;102588.63;5054615;28;47311;-83
2022/07/08 10:56:53;;;;;;;;;5.00;4.00;;;;;22.22;42.13;102582.53;5055423;28;45796;-82
2022/07/08 10:59:19;;;;;;;;;5.00;3.50;;;;;22.29;41.86;102588.00;5074024;28;45454;-82
2022/07/08 11:01:52;;;;;;;;;7.00;5.00;;;;;22.28;42.02;102571.91;5073491;28;45429;-84
2022/07/08 11:04:34;;;;;;;;;6.00;6.00;;;;;22.38;41.80;102573.84;5055550;28;47988;-83
2022/07/08 11:07:15;;;;;;;;;5.00;5.00;;;;;22.51;41.74;102583.88;5073849;28;45315;-83
2022/07/08 11:09:41;;;;;;;;;4.50;4.50;;;;;22.47;42.24;102573.97;5073890;28;45364;-82
2022/07/08 11:12:14;;;;;;;;;6.25;5.00;;;;;22.59;41.51;102570.56;5074216;28;45634;-82
2022/07/08 11:14:44;;;;;;;;;4.50;4.00;;;;;22.63;41.44;102567.06;5073382;28;45677;-84
2022/07/08 11:17:24;;;;;;;;;6.50;5.50;;;;;22.76;41.42;102576.16;5073186;28;45564;-84
2022/07/08 11:19:52;;;;;;;;;7.50;5.75;;;;;22.80;41.42;102564.59;5073973;28;45377;-83
2022/07/08 11:22:19;;;;;;;;;4.75;4.75;;;;;22.73;41.31;102560.03;5073457;28;45497;-84
2022/07/08 11:24:46;;;;;;;;;5.25;5.00;;;;;22.68;40.30;102525.13;5073440;28;46521;-84